FlightSource - Aviation Photo Database

World Wide Airport Lookup


Search by ICAO
Or
Search by City

FlightSource.ca - Aviation Photo Database - Chautauqua Co Jamestown Airport Information
Airport Identification
Name: Chautauqua Co Jamestown Airport
ICAO: KJHW
IATA:
Airport Location
City: Jamestown
Region: NY
Country: United States
Continent: North America
Latitude: 42.1534
Longitude: -79.258
Airport Information
Type: Medium Airport
Elevation: 1723 Feet ASL
Flight Status: KJHW
More Info: KJHW
Airport Weather    
Metar: KJHW 200722Z AUTO 00000KT 3/4SM BR CLR 15/15 A3003 RMK AO2 VIS 1/4V5 RVRNO
TAF:


Advertisement